Time;durP1;ratioP1;P1;durP2;ratioP2;P2;SDS_P1;SDS_P2;PMS_P1;PMS_P2;Temp;Humidity;BMP_temperature;BMP_pressure;BME280_temperature;BME280_humidity;BME280_pressure;Samples;Min_cycle;Max_cycle;Signal;HPM_P1;HPM_P2
2023/04/28 00:01:09;;;;;;;12.75;9.52;;;5.50;99.90;;;;;;5003903;28;20053;-55
2023/04/28 00:03:35;;;;;;;12.57;9.23;;;5.50;99.90;;;;;;5004298;28;20049;-53
2023/04/28 00:06:01;;;;;;;15.00;9.35;;;5.60;99.90;;;;;;5002060;28;20532;-54
2023/04/28 00:08:27;;;;;;;14.45;9.23;;;5.60;99.90;;;;;;5003069;28;20065;-59
2023/04/28 00:10:52;;;;;;;15.55;9.55;;;5.60;99.90;;;;;;5004187;28;20145;-56
2023/04/28 00:13:18;;;;;;;11.55;9.07;;;5.60;99.90;;;;;;5003926;28;20073;-59
2023/04/28 00:15:44;;;;;;;11.43;9.20;;;5.60;99.90;;;;;;5004174;28;20084;-57
2023/04/28 00:18:10;;;;;;;14.98;9.25;;;5.60;99.90;;;;;;5003848;28;20045;-59
2023/04/28 00:20:35;;;;;;;14.48;9.48;;;5.50;99.90;;;;;;5004007;28;20599;-59
2023/04/28 00:23:01;;;;;;;10.77;8.75;;;5.50;99.90;;;;;;5002359;28;20050;-51
2023/04/28 00:25:27;;;;;;;11.43;8.07;;;5.70;99.90;;;;;;5003897;28;20038;-59
2023/04/28 00:27:52;;;;;;;10.82;8.95;;;5.40;99.90;;;;;;5003835;28;20045;-52
2023/04/28 00:30:18;;;;;;;11.80;9.05;;;5.40;99.90;;;;;;5004127;28;20266;-55
2023/04/28 00:32:44;;;;;;;10.80;8.20;;;5.40;99.90;;;;;;5003770;28;20415;-55
2023/04/28 00:35:09;;;;;;;11.55;9.10;;;5.40;99.90;;;;;;5003652;28;20038;-59
2023/04/28 00:37:36;;;;;;;12.38;8.85;;;5.30;99.90;;;;;;5002343;28;20076;-56
2023/04/28 00:40:02;;;;;;;12.10;7.45;;;5.30;99.90;;;;;;5002611;28;20121;-49
2023/04/28 00:42:28;;;;;;;13.13;8.13;;;5.30;99.90;;;;;;5004026;28;20152;-58
2023/04/28 00:44:53;;;;;;;12.57;8.50;;;5.60;99.90;;;;;;5003174;28;20099;-55
2023/04/28 00:47:19;;;;;;;11.40;8.45;;;5.30;99.90;;;;;;5003703;28;20580;-57
2023/04/28 00:49:48;;;;;;;12.10;9.10;;;5.30;99.90;;;;;;5003462;28;20544;-55
2023/04/28 00:52:14;;;;;;;11.85;8.60;;;5.20;99.90;;;;;;5003073;28;20041;-58
2023/04/28 00:54:41;;;;;;;13.32;9.38;;;5.30;99.90;;;;;;5001611;28;20048;-55
2023/04/28 00:57:08;;;;;;;13.95;9.63;;;5.20;99.90;;;;;;5002880;28;20059;-58
2023/04/28 00:59:34;;;;;;;12.13;8.40;;;5.20;99.90;;;;;;5003234;28;20169;-51
2023/04/28 01:02:00;;;;;;;13.02;9.65;;;5.20;99.90;;;;;;5003296;28;20125;-58
2023/04/28 01:04:27;;;;;;;13.02;9.60;;;5.20;99.90;;;;;;5002713;28;20108;-56
2023/04/28 01:06:55;;;;;;;11.02;9.20;;;5.30;99.90;;;;;;5002303;28;20104;-56
2023/04/28 01:09:20;;;;;;;11.82;8.80;;;5.30;99.90;;;;;;5003012;28;20053;-58
2023/04/28 01:11:46;;;;;;;12.90;9.48;;;5.30;99.90;;;;;;5003341;28;20046;-49
2023/04/28 01:14:12;;;;;;;12.95;9.88;;;5.20;99.90;;;;;;5001074;28;20046;-55
2023/04/28 01:16:38;;;;;;;11.55;9.15;;;5.30;99.90;;;;;;5002587;28;20050;-58
2023/04/28 01:19:06;;;;;;;13.60;9.93;;;5.30;99.90;;;;;;5002828;28;20236;-53
2023/04/28 01:21:33;;;;;;;12.98;9.73;;;5.30;99.90;;;;;;5001594;28;20049;-58
2023/04/28 01:24:00;;;;;;;16.63;10.73;;;5.30;99.90;;;;;;5002634;28;20096;-56
2023/04/28 01:26:26;;;;;;;13.07;10.45;;;5.30;99.90;;;;;;5002700;28;20081;-59
2023/04/28 01:28:52;;;;;;;15.00;10.43;;;5.30;99.90;;;;;;5002009;28;20397;-57
2023/04/28 01:31:18;;;;;;;14.60;10.98;;;5.30;99.90;;;;;;5003233;28;20445;-58
2023/04/28 01:33:43;;;;;;;15.75;11.13;;;5.40;99.90;;;;;;5002504;28;20130;-54
2023/04/28 01:36:09;;;;;;;16.70;11.55;;;5.30;99.90;;;;;;5001580;28;20125;-58
2023/04/28 01:38:35;;;;;;;14.77;10.85;;;5.30;99.90;;;;;;5002428;28;20042;-52
2023/04/28 01:41:01;;;;;;;16.25;11.55;;;5.30;99.90;;;;;;5002557;28;20092;-59
2023/04/28 01:43:27;;;;;;;17.45;12.15;;;5.50;99.90;;;;;;5001121;28;20137;-50
2023/04/28 01:45:53;;;;;;;18.10;11.77;;;5.30;99.90;;;;;;5001762;28;20053;-57
2023/04/28 01:48:18;;;;;;;16.65;12.23;;;5.40;99.90;;;;;;5002514;28;20508;-58
2023/04/28 01:50:44;;;;;;;17.05;12.23;;;5.50;99.90;;;;;;5000592;28;20046;-56
2023/04/28 01:53:10;;;;;;;17.27;12.98;;;5.40;99.90;;;;;;5001591;28;20559;-52
2023/04/28 01:55:37;;;;;;;16.75;11.40;;;5.50;99.90;;;;;;5001944;28;20168;-54
2023/04/28 01:58:03;;;;;;;16.30;12.00;;;5.50;99.90;;;;;;5002438;28;20060;-59
2023/04/28 02:00:28;;;;;;;17.40;12.20;;;5.50;99.90;;;;;;5002304;28;20038;-57
2023/04/28 02:02:54;;;;;;;18.10;13.32;;;5.50;99.90;;;;;;5001977;28;20269;-59
2023/04/28 02:05:20;;;;;;;18.85;13.50;;;6.20;99.90;;;;;;5002638;28;20049;-52
2023/04/28 02:07:45;;;;;;;20.20;13.73;;;5.50;99.90;;;;;;4983487;28;20197;-59
2023/04/28 02:10:11;;;;;;;16.45;12.68;;;5.50;99.90;;;;;;5001822;28;20041;-53
2023/04/28 02:12:37;;;;;;;20.48;14.10;;;5.60;99.90;;;;;;5002207;28;20033;-56
2023/04/28 02:15:03;;;;;;;20.50;14.05;;;5.80;99.90;;;;;;5000980;28;20046;-58
2023/04/28 02:17:31;;;;;;;20.63;14.75;;;5.50;99.90;;;;;;5002051;28;20054;-56
2023/04/28 02:19:57;;;;;;;19.45;14.15;;;5.60;99.90;;;;;;5001778;28;20077;-56
2023/04/28 02:22:23;;;;;;;20.15;14.88;;;5.50;99.90;;;;;;5001364;28;20096;-62
2023/04/28 02:24:49;;;;;;;19.77;14.82;;;5.50;99.90;;;;;;5002836;28;20042;-55
2023/04/28 02:27:15;;;;;;;19.63;14.60;;;5.50;99.90;;;;;;5001440;28;20038;-58
2023/04/28 02:29:41;;;;;;;21.98;14.02;;;5.80;99.90;;;;;;5002417;28;20045;-59
2023/04/28 02:32:06;;;;;;;20.20;14.35;;;5.40;99.90;;;;;;5000783;28;20045;-54
2023/04/28 02:34:32;;;;;;;21.35;16.05;;;5.50;99.90;;;;;;5002023;28;20056;-59
2023/04/28 02:36:58;;;;;;;20.75;14.48;;;5.70;99.90;;;;;;5000314;28;20045;-52
2023/04/28 02:39:25;;;;;;;21.30;14.52;;;5.40;99.90;;;;;;5002322;28;20544;-59
2023/04/28 02:41:52;;;;;;;22.33;15.77;;;5.40;99.90;;;;;;5002007;28;20042;-55
2023/04/28 02:44:17;;;;;;;20.55;15.18;;;5.40;99.90;;;;;;5001503;28;20049;-50
2023/04/28 02:46:43;;;;;;;21.10;16.35;;;5.60;99.90;;;;;;5002123;28;20099;-54
2023/04/28 02:49:09;;;;;;;24.88;15.45;;;5.40;99.90;;;;;;5001831;28;20061;-58
2023/04/28 02:51:35;;;;;;;25.40;15.68;;;6.00;99.90;;;;;;5000441;28;20042;-54
2023/04/28 02:54:00;;;;;;;21.48;16.23;;;5.70;99.90;;;;;;5001777;28;20076;-59
2023/04/28 02:56:26;;;;;;;23.90;16.48;;;6.50;99.90;;;;;;5000511;28;20099;-55
2023/04/28 02:58:52;;;;;;;21.83;16.40;;;5.50;99.90;;;;;;5000554;28;20074;-55
2023/04/28 03:01:17;;;;;;;22.55;16.95;;;5.50;99.90;;;;;;5004100;28;20042;-59
2023/04/28 03:03:43;;;;;;;24.30;16.92;;;5.50;99.90;;;;;;5005178;28;20045;-55
2023/04/28 03:06:08;;;;;;;24.08;16.90;;;5.50;99.90;;;;;;5004279;28;20185;-59
2023/04/28 03:08:34;;;;;;;25.40;17.35;;;5.50;99.90;;;;;;5004784;28;20100;-56
2023/04/28 03:11:00;;;;;;;27.25;16.67;;;5.50;99.90;;;;;;5005282;28;20486;-59
2023/04/28 03:13:26;;;;;;;26.70;17.25;;;5.50;99.90;;;;;;5005895;28;20507;-56
2023/04/28 03:15:51;;;;;;;24.38;17.25;;;5.50;99.90;;;;;;5003607;28;20050;-55
2023/04/28 03:18:17;;;;;;;28.02;17.77;;;5.90;99.90;;;;;;5004793;28;20484;-52
2023/04/28 03:20:43;;;;;;;25.45;18.15;;;5.90;99.90;;;;;;5004497;28;20045;-53
2023/04/28 03:23:09;;;;;;;23.77;17.58;;;5.60;99.90;;;;;;5005255;28;20061;-59
2023/04/28 03:25:35;;;;;;;26.13;17.92;;;5.50;99.90;;;;;;5004226;28;20042;-53
2023/04/28 03:28:00;;;;;;;27.10;17.20;;;5.50;99.90;;;;;;5005242;28;20136;-56
2023/04/28 03:30:27;;;;;;;28.70;18.95;;;5.60;99.90;;;;;;5004243;28;20397;-57
2023/04/28 03:32:52;;;;;;;26.30;18.40;;;5.50;99.90;;;;;;5004914;28;20393;-57
2023/04/28 03:35:18;;;;;;;26.27;17.27;;;5.50;99.90;;;;;;5004376;28;20057;-50
2023/04/28 03:37:44;;;;;;;22.85;17.45;;;5.50;99.90;;;;;;5003833;28;20042;-51
2023/04/28 03:40:10;;;;;;;24.58;16.23;;;5.80;99.90;;;;;;5004795;28;20121;-59
2023/04/28 03:42:36;;;;;;;24.25;16.63;;;5.50;99.90;;;;;;5003857;28;20050;-55
2023/04/28 03:45:02;;;;;;;24.75;17.30;;;5.50;99.90;;;;;;5005030;28;20390;-56
2023/04/28 03:47:27;;;;;;;26.35;18.02;;;5.50;99.90;;;;;;5004771;28;20045;-54
2023/04/28 03:49:53;;;;;;;24.67;16.70;;;5.50;99.90;;;;;;5004991;28;20080;-56
2023/04/28 03:52:19;;;;;;;23.70;16.90;;;5.50;99.90;;;;;;5003386;28;20120;-54
2023/04/28 03:54:45;;;;;;;23.08;16.80;;;5.70;99.90;;;;;;5004205;28;20045;-58
2023/04/28 03:57:11;;;;;;;20.98;14.50;;;5.50;99.90;;;;;;5004651;28;20125;-58
2023/04/28 03:59:37;;;;;;;22.48;16.38;;;5.40;99.90;;;;;;5003698;28;20293;-57
2023/04/28 04:02:02;;;;;;;22.30;16.33;;;5.50;99.90;;;;;;5004973;28;20046;-59
2023/04/28 04:04:28;;;;;;;21.73;16.08;;;5.30;99.90;;;;;;5004308;28;20125;-54
2023/04/28 04:06:54;;;;;;;21.50;15.98;;;5.30;99.90;;;;;;5003050;28;20140;-56
2023/04/28 04:09:19;;;;;;;23.85;15.63;;;5.30;99.90;;;;;;5003812;28;20057;-55
2023/04/28 04:11:45;;;;;;;21.58;15.48;;;5.20;99.90;;;;;;5002776;28;20552;-59
2023/04/28 04:14:11;;;;;;;22.27;15.55;;;5.30;99.90;;;;;;5004130;28;20050;-54
2023/04/28 04:16:36;;;;;;;24.83;15.48;;;5.20;99.90;;;;;;5003543;28;20034;-57
2023/04/28 04:19:02;;;;;;;22.52;15.57;;;5.40;99.90;;;;;;5004293;28;20045;-57
2023/04/28 04:21:28;;;;;;;19.23;15.32;;;5.20;99.90;;;;;;5003632;28;20046;-58
2023/04/28 04:23:53;;;;;;;20.55;14.75;;;5.20;99.90;;;;;;5003668;28;20045;-52
2023/04/28 04:26:19;;;;;;;20.98;15.48;;;5.20;99.90;;;;;;5003723;28;20046;-55
2023/04/28 04:28:45;;;;;;;19.92;14.38;;;5.20;99.90;;;;;;5004059;28;20479;-59
2023/04/28 04:31:11;;;;;;;17.92;14.50;;;5.20;99.90;;;;;;5003730;28;20081;-55
2023/04/28 04:33:36;;;;;;;18.80;14.60;;;5.20;99.90;;;;;;5003398;28;20065;-59
2023/04/28 04:36:03;;;;;;;22.30;16.10;;;5.30;99.90;;;;;;5002680;28;20104;-51
2023/04/28 04:38:29;;;;;;;20.50;13.75;;;5.30;99.90;;;;;;5004091;28;20046;-59
2023/04/28 04:40:55;;;;;;;21.20;14.45;;;5.50;99.90;;;;;;5003074;28;20137;-54
2023/04/28 04:43:21;;;;;;;20.25;14.35;;;5.30;99.90;;;;;;5003300;28;20136;-59
2023/04/28 04:45:47;;;;;;;20.98;14.73;;;5.30;99.90;;;;;;5003649;28;20096;-49
2023/04/28 04:48:13;;;;;;;20.10;13.57;;;5.70;99.90;;;;;;5003507;28;20765;-55
2023/04/28 04:50:39;;;;;;;20.33;14.98;;;5.30;99.90;;;;;;5000576;28;20046;-59
2023/04/28 04:53:05;;;;;;;18.10;12.38;;;5.40;99.90;;;;;;5003053;28;20097;-57
2023/04/28 04:55:31;;;;;;;19.90;14.88;;;5.40;99.90;;;;;;5003644;28;20042;-48
2023/04/28 04:57:56;;;;;;;21.35;14.77;;;5.40;99.90;;;;;;5002603;28;20058;-54
2023/04/28 05:00:22;;;;;;;21.30;15.48;;;5.80;99.90;;;;;;5003481;28;20068;-57
2023/04/28 05:02:48;;;;;;;22.55;14.45;;;5.40;99.90;;;;;;5002960;28;20120;-54
2023/04/28 05:05:13;;;;;;;18.65;12.55;;;5.40;99.90;;;;;;5003285;28;20050;-58
2023/04/28 05:07:39;;;;;;;18.95;13.65;;;5.40;99.90;;;;;;5001680;28;20092;-56
2023/04/28 05:10:06;;;;;;;20.20;13.82;;;5.50;99.90;;;;;;5003060;28;20045;-57
2023/04/28 05:12:31;;;;;;;18.80;12.27;;;5.40;99.90;;;;;;5003808;28;20065;-49
2023/04/28 05:14:57;;;;;;;19.02;13.15;;;5.50;99.90;;;;;;5002068;28;20081;-58
2023/04/28 05:17:23;;;;;;;20.08;14.05;;;5.40;99.90;;;;;;5003145;28;20041;-58
2023/04/28 05:19:49;;;;;;;20.48;12.55;;;5.50;99.90;;;;;;5002665;28;20132;-54
2023/04/28 05:22:15;;;;;;;18.05;12.98;;;5.50;99.90;;;;;;5001998;28;20050;-56
2023/04/28 05:24:40;;;;;;;18.45;13.05;;;5.70;99.90;;;;;;5001420;28;20499;-55
2023/04/28 05:27:06;;;;;;;21.35;14.45;;;5.50;99.90;;;;;;5002681;28;20034;-54
2023/04/28 05:29:32;;;;;;;20.63;13.95;;;5.50;99.90;;;;;;5003107;28;20042;-56
2023/04/28 05:31:57;;;;;;;16.70;12.60;;;5.50;99.90;;;;;;5001821;28;20099;-58
2023/04/28 05:34:23;;;;;;;18.77;11.88;;;5.50;99.90;;;;;;5002949;28;20096;-52
2023/04/28 05:36:50;;;;;;;18.13;12.98;;;5.50;99.90;;;;;;5001102;28;20404;-56
2023/04/28 05:39:16;;;;;;;18.95;13.38;;;5.50;99.90;;;;;;5000736;28;20048;-56
2023/04/28 05:41:42;;;;;;;18.73;13.20;;;5.70;99.90;;;;;;5002353;28;20049;-59
2023/04/28 05:44:08;;;;;;;17.55;13.68;;;5.50;99.90;;;;;;5002725;28;20064;-57
2023/04/28 05:46:33;;;;;;;18.70;12.73;;;5.60;99.90;;;;;;5002539;28;20065;-53
2023/04/28 05:48:59;;;;;;;16.38;12.23;;;5.60;99.90;;;;;;5001982;28;20525;-59
2023/04/28 05:51:26;;;;;;;17.92;12.63;;;5.60;99.90;;;;;;5001336;28;20061;-51
2023/04/28 05:53:51;;;;;;;17.95;11.82;;;5.60;99.90;;;;;;5002803;28;20042;-59
2023/04/28 05:56:17;;;;;;;16.08;11.70;;;5.60;99.90;;;;;;5001672;28;20046;-54
2023/04/28 05:58:46;;;;;;;18.38;12.77;;;5.60;99.90;;;;;;5002296;28;20603;-59
2023/04/28 06:01:12;;;;;;;16.73;12.57;;;6.00;99.90;;;;;;5002106;28;20049;-52
2023/04/28 06:03:41;;;;;;;19.80;13.57;;;5.70;99.90;;;;;;5002314;28;20050;-60
2023/04/28 06:06:08;;;;;;;18.10;12.43;;;5.80;99.90;;;;;;5000189;28;20409;-56
2023/04/28 06:08:34;;;;;;;20.38;12.55;;;5.80;99.90;;;;;;5002392;28;20062;-58
2023/04/28 06:10:59;;;;;;;16.27;12.00;;;5.80;99.90;;;;;;5001853;28;20219;-54
2023/04/28 06:13:25;;;;;;;17.00;12.98;;;5.90;99.90;;;;;;5001608;28;20057;-58
2023/04/28 06:15:51;;;;;;;19.60;13.25;;;5.90;99.90;;;;;;5001941;28;20057;-54
2023/04/28 06:18:16;;;;;;;17.27;11.35;;;6.10;99.90;;;;;;5002198;28;20042;-54
2023/04/28 06:20:42;;;;;;;18.20;12.52;;;6.20;99.90;;;;;;5000792;28;20084;-55
2023/04/28 06:23:08;;;;;;;20.55;12.63;;;6.20;99.90;;;;;;5001950;28;20604;-50
2023/04/28 06:25:35;;;;;;;16.25;12.13;;;6.20;99.90;;;;;;5002476;28;20050;-58
2023/04/28 06:28:01;;;;;;;17.25;12.80;;;6.20;99.90;;;;;;5001611;28;20137;-53
2023/04/28 06:30:27;;;;;;;17.40;12.43;;;6.20;99.90;;;;;;5001448;28;20343;-57
2023/04/28 06:32:53;;;;;;;14.95;11.07;;;6.30;99.90;;;;;;5001994;28;20038;-58
2023/04/28 06:35:19;;;;;;;16.77;11.93;;;6.30;99.90;;;;;;5002532;28;20042;-58
2023/04/28 06:37:44;;;;;;;17.33;12.88;;;6.60;99.90;;;;;;5004813;28;20504;-54
2023/04/28 06:40:10;;;;;;;19.55;12.23;;;6.40;99.90;;;;;;5005908;28;20045;-58
2023/04/28 06:42:36;;;;;;;17.40;12.43;;;6.40;99.90;;;;;;5005902;28;20046;-54
2023/04/28 06:45:02;;;;;;;15.65;12.25;;;6.40;99.90;;;;;;5005530;28;20124;-48
2023/04/28 06:47:28;;;;;;;16.48;12.10;;;6.50;99.90;;;;;;5005545;28;20486;-55
2023/04/28 06:49:53;;;;;;;15.32;11.60;;;6.80;99.90;;;;;;5005324;28;20038;-56
2023/04/28 06:52:22;;;;;;;14.77;11.85;;;6.60;99.90;;;;;;5004933;28;20041;-52
2023/04/28 06:54:49;;;;;;;16.88;12.25;;;6.60;99.90;;;;;;5005116;28;20042;-58
2023/04/28 06:57:15;;;;;;;15.63;11.80;;;6.70;99.90;;;;;;5005418;28;20042;-54
2023/04/28 06:59:42;;;;;;;15.00;11.30;;;6.70;99.90;;;;;;5005622;28;20384;-57
2023/04/28 07:02:09;;;;;;;17.27;12.13;;;6.80;99.90;;;;;;5005141;28;20042;-52
2023/04/28 07:04:35;;;;;;;19.52;12.43;;;6.80;99.90;;;;;;5005897;28;20645;-57
2023/04/28 07:07:01;;;;;;;20.63;11.77;;;6.80;99.90;;;;;;5004565;28;20052;-52
2023/04/28 07:09:27;;;;;;;16.38;11.75;;;6.90;99.90;;;;;;5004943;28;20141;-52
2023/04/28 07:11:52;;;;;;;15.23;11.45;;;7.20;99.90;;;;;;5005977;28;20081;-55
2023/04/28 07:14:18;;;;;;;16.58;10.25;;;7.00;99.90;;;;;;5004796;28;20066;-49
2023/04/28 07:16:44;;;;;;;16.92;11.68;;;7.30;99.90;;;;;;5005085;28;20505;-59
2023/04/28 07:19:09;;;;;;;14.68;11.55;;;7.10;99.90;;;;;;5004944;28;20073;-51
2023/04/28 07:21:35;;;;;;;15.70;11.55;;;7.20;99.90;;;;;;5004783;28;20077;-59
2023/04/28 07:24:01;;;;;;;16.05;11.73;;;7.30;99.90;;;;;;5004954;28;20396;-54
2023/04/28 07:26:27;;;;;;;15.13;10.20;;;7.30;99.90;;;;;;5004444;28;20269;-57
2023/04/28 07:28:52;;;;;;;14.35;10.45;;;7.40;99.90;;;;;;5006933;28;20038;-55
2023/04/28 07:31:19;;;;;;;15.55;10.70;;;7.40;99.90;;;;;;5007299;28;20042;-55
2023/04/28 07:33:44;;;;;;;16.70;11.68;;;7.60;99.90;;;;;;5006679;28;20049;-55
2023/04/28 07:36:10;;;;;;;14.27;11.07;;;7.60;99.90;;;;;;5004358;28;20550;-52
2023/04/28 07:38:36;;;;;;;17.00;10.98;;;7.40;99.90;;;;;;5006110;28;20129;-58
2023/04/28 07:41:02;;;;;;;14.93;10.77;;;7.50;99.90;;;;;;5005695;28;20038;-56
2023/04/28 07:43:29;;;;;;;17.02;11.90;;;7.50;99.90;;;;;;5005439;28;20358;-59
2023/04/28 07:45:55;;;;;;;14.20;10.90;;;7.60;99.90;;;;;;5005328;28;20046;-59
2023/04/28 07:48:20;;;;;;;16.25;10.90;;;7.70;99.90;;;;;;5005519;28;20049;-57
2023/04/28 07:50:47;;;;;;;13.88;10.70;;;7.70;99.90;;;;;;5002367;28;20085;-54
2023/04/28 07:53:12;;;;;;;15.45;10.02;;;7.80;99.90;;;;;;5002193;28;20046;-57
2023/04/28 07:55:40;;;;;;;15.27;10.73;;;7.80;99.90;;;;;;5004631;28;20048;-51
2023/04/28 07:58:07;;;;;;;14.25;10.93;;;7.90;99.90;;;;;;5004407;28;20081;-56
2023/04/28 08:00:32;;;;;;;17.45;10.90;;;7.90;99.90;;;;;;5003438;28;20037;-55
2023/04/28 08:02:58;;;;;;;13.23;10.82;;;8.00;99.90;;;;;;5004562;28;20045;-58
2023/04/28 08:05:24;;;;;;;15.43;10.45;;;8.10;99.90;;;;;;5003095;28;20046;-50
2023/04/28 08:07:50;;;;;;;16.80;10.85;;;8.10;99.90;;;;;;5003725;28;20069;-55
2023/04/28 08:10:16;;;;;;;15.90;9.55;;;8.10;99.90;;;;;;5004084;28;20076;-53
2023/04/28 08:12:41;;;;;;;16.42;11.23;;;8.10;99.90;;;;;;5004216;28;20038;-58
2023/04/28 08:15:09;;;;;;;14.60;10.30;;;8.10;99.90;;;;;;5004245;28;20053;-58
2023/04/28 08:17:34;;;;;;;16.10;10.88;;;8.10;99.90;;;;;;5003438;28;20042;-58
2023/04/28 08:20:00;;;;;;;16.13;10.32;;;8.10;99.90;;;;;;5002981;28;20091;-58
2023/04/28 08:22:25;;;;;;;16.35;11.10;;;8.20;99.90;;;;;;5005152;28;20042;-48
2023/04/28 08:24:51;;;;;;;14.75;10.88;;;8.30;99.90;;;;;;5003613;28;20042;-59
2023/04/28 08:27:17;;;;;;;15.68;10.57;;;8.40;99.90;;;;;;5004108;28;20288;-52
2023/04/28 08:29:44;;;;;;;15.73;10.45;;;8.40;99.90;;;;;;5011036;28;20033;-51
2023/04/28 08:32:09;;;;;;;16.55;10.93;;;8.50;99.90;;;;;;5014100;28;20033;-54
2023/04/28 08:34:35;;;;;;;14.73;10.18;;;8.60;99.90;;;;;;5012179;28;20042;-57
2023/04/28 08:37:01;;;;;;;14.88;10.43;;;8.60;99.90;;;;;;5014684;28;20489;-53
2023/04/28 08:39:27;;;;;;;14.35;10.07;;;8.60;99.90;;;;;;5023472;28;20056;-52
2023/04/28 08:41:53;;;;;;;13.55;10.27;;;8.70;99.90;;;;;;5021512;28;20041;-57
2023/04/28 08:44:19;;;;;;;14.30;9.90;;;8.80;99.90;;;;;;5024592;28;20504;-63
2023/04/28 08:46:47;;;;;;;15.05;9.98;;;8.90;99.90;;;;;;5023938;28;20040;-61
2023/04/28 08:49:17;;;;;;;14.25;10.35;;;8.90;99.90;;;;;;5023190;28;20765;-54
2023/04/28 08:51:51;;;;;;;15.55;10.30;;;9.00;99.90;;;;;;5022900;28;20049;-57
2023/04/28 08:54:18;;;;;;;15.27;10.05;;;9.00;99.90;;;;;;5021861;28;20045;-59
2023/04/28 08:56:45;;;;;;;13.90;10.38;;;9.00;99.90;;;;;;5022917;28;20080;-56
2023/04/28 08:59:14;;;;;;;16.65;9.90;;;9.20;99.90;;;;;;5023275;28;20049;-57
2023/04/28 09:01:40;;;;;;;13.27;9.95;;;9.30;99.90;;;;;;5023503;28;20467;-54
2023/04/28 09:04:06;;;;;;;12.52;9.95;;;9.40;99.90;;;;;;5022113;28;20136;-48
2023/04/28 09:06:36;;;;;;;15.25;10.65;;;9.40;99.90;;;;;;5022366;28;20124;-57
2023/04/28 09:09:21;;;;;;;18.08;10.38;;;9.50;99.90;;;;;;5022860;28;20061;-58
2023/04/28 09:11:55;;;;;;;14.60;9.73;;;9.40;99.90;;;;;;5021762;28;20072;-52
2023/04/28 09:14:22;;;;;;;13.37;9.90;;;9.50;99.90;;;;;;5015747;28;20041;-54
2023/04/28 09:16:48;;;;;;;14.70;10.00;;;9.40;99.90;;;;;;5022422;28;20284;-53
2023/04/28 09:19:16;;;;;;;17.33;10.20;;;9.40;99.90;;;;;;5023540;28;20120;-56
2023/04/28 09:21:52;;;;;;;14.73;9.50;;;9.40;99.90;;;;;;5021195;28;20056;-55
2023/04/28 09:24:32;;;;;;;13.65;10.40;;;9.40;99.90;;;;;;5022101;28;20133;-57
2023/04/28 09:27:03;;;;;;;13.95;9.40;;;9.50;99.90;;;;;;5022964;28;20042;-59
2023/04/28 09:29:30;;;;;;;15.77;9.95;;;9.60;99.90;;;;;;5022694;28;20088;-49
2023/04/28 09:32:15;;;;;;;14.38;9.65;;;9.60;99.90;;;;;;5021175;28;20045;-52
2023/04/28 09:34:48;;;;;;;16.77;10.05;;;9.60;99.90;;;;;;5022253;28;20056;-48
2023/04/28 09:37:24;;;;;;;15.82;10.55;;;9.70;99.90;;;;;;5022906;28;20091;-54
2023/04/28 09:39:52;;;;;;;13.02;10.05;;;9.60;99.90;;;;;;5022403;28;20051;-53
2023/04/28 09:42:41;;;;;;;15.20;10.55;;;9.70;99.90;;;;;;5021888;28;20041;-49
2023/04/28 09:45:09;;;;;;;17.00;11.30;;;9.70;99.90;;;;;;5021052;28;20136;-61
2023/04/28 09:47:40;;;;;;;15.35;11.30;;;9.70;99.90;;;;;;5007718;28;20050;-50
2023/04/28 09:50:10;;;;;;;15.88;10.65;;;9.70;99.90;;;;;;5002020;28;20049;-57
2023/04/28 09:52:36;;;;;;;18.75;10.80;;;9.90;99.90;;;;;;5002583;28;20046;-56
2023/04/28 09:55:04;;;;;;;15.63;10.60;;;10.00;99.90;;;;;;5002127;28;20068;-60
2023/04/28 09:57:31;;;;;;;16.63;11.40;;;10.20;99.90;;;;;;5004100;28;20038;-58
2023/04/28 09:59:58;;;;;;;12.82;10.52;;;10.40;99.90;;;;;;5002900;28;20045;-64
2023/04/28 10:02:25;;;;;;;15.13;11.63;;;10.50;99.90;;;;;;5000534;28;20064;-56
2023/04/28 10:04:51;;;;;;;16.27;10.43;;;10.50;99.90;;;;;;5002356;28;20504;-63
2023/04/28 10:07:20;;;;;;;15.68;10.73;;;10.70;99.90;;;;;;5002884;28;20058;-58
2023/04/28 10:09:50;;;;;;;13.45;10.93;;;11.00;99.90;;;;;;5004566;28;20058;-52
2023/04/28 10:12:20;;;;;;;14.07;10.23;;;11.20;99.90;;;;;;5009651;28;20034;-63
2023/04/28 10:14:49;;;;;;;15.50;10.45;;;11.50;99.90;;;;;;5009243;28;20053;-61
2023/04/28 10:17:16;;;;;;;13.43;10.57;;;12.00;99.90;;;;;;5008535;28;20042;-62
2023/04/28 10:19:44;;;;;;;14.57;9.00;;;12.30;99.90;;;;;;5008028;28;20445;-52
2023/04/28 10:22:42;;;;;;;11.75;8.90;;;12.60;99.90;;;;;;5007534;28;20061;-59
2023/04/28 10:25:24;;;;;;;12.52;9.45;;;12.80;99.90;;;;;;5008518;28;20133;-59
2023/04/28 10:27:51;;;;;;;12.25;8.98;;;12.90;99.90;;;;;;5007515;28;20215;-62
2023/04/28 10:30:22;;;;;;;12.10;9.10;;;13.10;99.90;;;;;;5008672;28;20037;-60
2023/04/28 10:33:10;;;;;;;11.23;8.90;;;13.30;99.90;;;;;;5008767;28;20432;-64
2023/04/28 10:35:41;;;;;;;10.75;8.48;;;13.50;99.90;;;;;;5007838;28;20044;-60
2023/04/28 10:38:14;;;;;;;12.50;9.38;;;13.60;99.90;;;;;;5008095;28;20041;-64
2023/04/28 10:40:44;;;;;;;15.15;9.02;;;13.70;99.90;;;;;;5007668;28;20046;-62
2023/04/28 10:43:30;;;;;;;15.77;9.70;;;13.70;99.90;;;;;;5008383;28;20056;-52
2023/04/28 10:45:58;;;;;;;13.65;9.70;;;13.80;99.90;;;;;;5007958;28;20049;-59
2023/04/28 10:48:36;;;;;;;14.73;9.18;;;13.70;99.90;;;;;;5008439;28;20050;-58
2023/04/28 10:51:13;;;;;;;11.65;8.68;;;13.80;99.90;;;;;;5007542;28;20117;-59
2023/04/28 10:53:44;;;;;;;11.15;7.50;;;13.60;99.90;;;;;;5008164;28;20042;-63
2023/04/28 10:56:20;;;;;;;12.85;7.53;;;13.50;99.90;;;;;;5008045;28;20103;-57
2023/04/28 10:58:50;;;;;;;11.18;9.18;;;13.20;99.90;;;;;;5006301;28;20056;-64
2023/04/28 11:01:29;;;;;;;11.77;9.15;;;13.20;99.90;;;;;;5008205;28;20429;-59
2023/04/28 11:03:59;;;;;;;12.32;9.20;;;13.00;99.90;;;;;;5007362;28;20053;-58
2023/04/28 11:06:40;;;;;;;15.65;9.43;;;12.90;99.90;;;;;;5007478;28;20609;-59
2023/04/28 11:09:12;;;;;;;14.68;9.25;;;13.00;99.90;;;;;;5007412;28;20064;-53
2023/04/28 11:11:39;;;;;;;16.95;9.80;;;12.90;99.90;;;;;;5007954;28;20057;-64
2023/04/28 11:14:17;;;;;;;12.30;9.10;;;12.80;99.90;;;;;;5008449;28;20054;-59
2023/04/28 11:16:59;;;;;;;13.85;9.77;;;12.80;99.90;;;;;;5007768;28;20061;-64
2023/04/28 11:19:27;;;;;;;12.38;8.98;;;12.80;99.90;;;;;;5007155;28;20057;-62
2023/04/28 11:21:57;;;;;;;12.52;9.43;;;12.70;99.90;;;;;;5005761;28;20275;-57
2023/04/28 11:24:24;;;;;;;16.13;10.23;;;12.80;99.90;;;;;;5004928;28;20436;-60
2023/04/28 11:26:51;;;;;;;12.95;9.25;;;12.70;99.90;;;;;;5004999;28;20038;-65
2023/04/28 11:29:17;;;;;;;15.18;9.73;;;12.80;99.90;;;;;;5004376;28;20060;-61
2023/04/28 11:31:50;;;;;;;14.38;9.85;;;12.70;99.90;;;;;;5004694;28;20108;-61
2023/04/28 11:34:20;;;;;;;11.25;9.45;;;12.60;99.90;;;;;;5004752;28;20377;-54
2023/04/28 11:36:46;;;;;;;14.15;9.10;;;12.50;99.90;;;;;;5003775;28;20038;-64
2023/04/28 11:39:12;;;;;;;14.48;10.60;;;12.50;99.90;;;;;;5004820;28;20038;-61
2023/04/28 11:41:43;;;;;;;16.73;9.70;;;12.50;99.90;;;;;;5004345;28;20493;-63
2023/04/28 11:44:12;;;;;;;13.65;10.52;;;12.40;99.90;;;;;;5004149;28;20045;-64
2023/04/28 11:46:56;;;;;;;14.82;11.63;;;12.30;99.90;;;;;;5004648;28;20054;-56
2023/04/28 11:49:42;;;;;;;13.60;10.77;;;12.30;99.90;;;;;;5002120;28;20046;-60
2023/04/28 11:52:08;;;;;;;15.48;10.85;;;12.30;99.90;;;;;;5004420;28;20046;-64
2023/04/28 11:54:35;;;;;;;14.73;10.93;;;12.30;99.90;;;;;;5004364;28;20065;-64
2023/04/28 11:57:03;;;;;;;14.88;11.60;;;12.30;99.90;;;;;;5004368;28;20096;-55
2023/04/28 11:59:34;;;;;;;13.85;10.52;;;12.30;99.90;;;;;;5004419;28;20104;-61
2023/04/28 12:02:06;;;;;;;15.98;11.30;;;12.50;99.90;;;;;;5003947;28;20052;-52
2023/04/28 12:04:37;;;;;;;16.17;11.15;;;12.20;99.90;;;;;;5003582;28;20124;-63
2023/04/28 12:07:11;;;;;;;14.30;11.02;;;12.30;99.90;;;;;;5004018;28;20434;-53
2023/04/28 12:09:39;;;;;;;14.23;10.80;;;12.30;99.90;;;;;;5003358;28;20046;-61
2023/04/28 12:12:26;;;;;;;13.85;10.52;;;12.40;99.90;;;;;;5004131;28;20049;-64
2023/04/28 12:15:04;;;;;;;14.18;11.10;;;12.50;99.90;;;;;;5003551;28;20592;-61
2023/04/28 12:17:32;;;;;;;16.15;11.00;;;12.50;99.90;;;;;;5003748;28;20033;-57
2023/04/28 12:19:59;;;;;;;17.65;11.10;;;12.50;99.90;;;;;;5003610;28;20426;-58
2023/04/28 12:22:26;;;;;;;13.88;10.45;;;12.60;99.90;;;;;;5003865;28;20070;-59
2023/04/28 12:25:21;;;;;;;14.00;10.38;;;12.60;99.90;;;;;;5003879;28;20586;-61
2023/04/28 12:28:06;;;;;;;15.93;11.52;;;12.60;99.90;;;;;;4990974;28;20053;-64
2023/04/28 12:30:34;;;;;;;19.23;10.98;;;12.60;99.90;;;;;;5004039;28;20045;-61
2023/04/28 12:33:00;;;;;;;16.23;11.15;;;12.70;99.90;;;;;;5003025;28;20496;-59
2023/04/28 12:35:27;;;;;;;15.25;10.88;;;12.50;99.90;;;;;;5001810;28;20084;-61
2023/04/28 12:37:55;;;;;;;14.10;11.05;;;12.90;99.90;;;;;;5003770;28;20038;-56
2023/04/28 12:40:21;;;;;;;17.67;10.55;;;12.60;99.90;;;;;;5003042;28;20046;-60